createdAt,value
2019-02-07T00:02:03.741Z,-1.70
2019-02-07T00:05:04.230Z,-1.70
2019-02-07T00:08:04.652Z,-1.80
2019-02-07T00:11:05.322Z,-2.00
2019-02-07T00:14:05.762Z,-1.90
2019-02-07T00:17:06.353Z,-1.80
2019-02-07T00:20:07.541Z,-1.90
2019-02-07T00:23:07.966Z,-1.90
2019-02-07T00:26:09.369Z,-1.90
2019-02-07T00:29:10.401Z,-2.10
2019-02-07T00:32:10.851Z,-2.30
2019-02-07T00:35:11.349Z,-2.30
2019-02-07T00:38:11.825Z,-2.10
2019-02-07T00:41:12.340Z,-2.20
2019-02-07T00:44:12.803Z,-2.20
2019-02-07T00:47:13.562Z,-2.20
2019-02-07T00:50:14.525Z,-2.40
2019-02-07T00:53:15.008Z,-2.40
2019-02-07T00:56:16.156Z,-2.60
2019-02-07T00:59:17.007Z,-2.40
2019-02-07T01:02:17.325Z,-2.30
2019-02-07T01:05:17.776Z,-2.20
2019-02-07T01:08:18.809Z,-2.20
2019-02-07T01:11:19.378Z,-2.20
2019-02-07T01:14:20.284Z,-2.20
2019-02-07T01:17:20.529Z,-2.40
2019-02-07T01:20:21.325Z,-2.40
2019-02-07T01:23:22.177Z,-2.50
2019-02-07T01:26:22.610Z,-2.40
2019-02-07T01:29:22.936Z,-2.50
2019-02-07T01:32:23.724Z,-2.40
2019-02-07T01:35:24.231Z,-2.30
2019-02-07T01:38:25.606Z,-2.30
2019-02-07T01:41:26.125Z,-2.30
2019-02-07T01:44:27.415Z,-2.30
2019-02-07T01:47:28.521Z,-2.40
2019-02-07T01:50:29.153Z,-2.50
2019-02-07T01:53:30.120Z,-2.40
2019-02-07T01:56:30.516Z,-2.40
2019-02-07T01:59:30.795Z,-2.70
2019-02-07T02:02:32.474Z,-2.50
2019-02-07T02:05:33.104Z,-2.50
2019-02-07T02:08:33.566Z,-2.40
2019-02-07T02:11:34.199Z,-2.40
2019-02-07T02:14:34.771Z,-2.40
2019-02-07T02:17:35.673Z,-2.40
2019-02-07T02:20:36.128Z,-2.60
2019-02-07T02:23:36.598Z,-2.70
2019-02-07T02:26:38.919Z,-2.70
2019-02-07T02:29:39.388Z,-2.70
2019-02-07T02:32:39.815Z,-2.60
2019-02-07T02:35:40.536Z,-2.60
2019-02-07T02:38:41.621Z,-2.80
2019-02-07T02:41:42.603Z,-2.60
2019-02-07T02:44:42.939Z,-2.80
2019-02-07T02:47:43.441Z,-2.70
2019-02-07T02:50:43.709Z,-2.70
2019-02-07T02:53:44.069Z,-2.60
2019-02-07T02:56:44.370Z,-2.60
2019-02-07T02:59:44.696Z,-2.90
2019-02-07T03:03:04.269Z,-2.80
2019-02-07T03:06:09.684Z,-2.80
2019-02-07T03:09:12.197Z,-2.70
2019-02-07T03:12:14.623Z,-2.80
2019-02-07T03:15:16.941Z,-2.80
2019-02-07T03:18:37.246Z,-2.60
2019-02-07T03:21:39.289Z,-2.50
2019-02-07T03:24:44.526Z,-2.50
2019-02-07T03:27:46.953Z,-2.40
2019-02-07T03:30:49.302Z,-2.40
2019-02-07T03:37:05.441Z,-2.40
2019-02-07T03:40:10.634Z,-2.50
2019-02-07T03:43:30.737Z,-2.50
2019-02-07T03:46:35.817Z,-2.50
2019-02-07T03:49:56.225Z,-2.50
2019-02-07T03:53:15.835Z,-2.50
2019-02-07T03:56:36.114Z,-2.70
2019-02-07T03:59:41.136Z,-2.80
2019-02-07T04:02:46.413Z,-2.70
2019-02-07T04:05:49.014Z,-2.60
2019-02-07T04:09:09.553Z,-2.70
2019-02-07T04:12:12.157Z,-2.70
2019-02-07T04:18:29.070Z,-2.70
2019-02-07T04:21:34.177Z,-2.50
2019-02-07T04:24:54.341Z,-2.60
2019-02-07T04:28:14.780Z,-2.50
2019-02-07T04:31:20.398Z,-2.60
2019-02-07T04:34:40.622Z,-2.50
2019-02-07T04:37:42.688Z,-2.50
2019-02-07T04:41:02.827Z,-2.50
2019-02-07T04:44:05.555Z,-2.50
2019-02-07T04:47:25.894Z,-2.40
2019-02-07T04:50:28.556Z,-2.70
2019-02-07T04:53:34.181Z,-2.50
2019-02-07T04:56:54.489Z,-2.50
2019-02-07T05:03:27.802Z,-2.40
2019-02-07T05:09:44.545Z,-2.50
2019-02-07T05:12:49.956Z,-2.30
2019-02-07T05:19:37.264Z,-2.20
2019-02-07T05:26:07.403Z,-2.00
2019-02-07T05:32:48.289Z,-2.00
2019-02-07T05:35:50.944Z,-2.00
2019-02-07T05:38:56.202Z,-2.10
2019-02-07T05:42:01.606Z,-2.10
2019-02-07T05:45:04.198Z,-2.00
2019-02-07T05:51:33.765Z,-2.10
2019-02-07T05:54:53.786Z,-2.20
2019-02-07T05:58:14.344Z,-2.30
2019-02-07T06:04:47.407Z,-2.30
2019-02-07T06:07:50.184Z,-2.10
2019-02-07T06:14:09.814Z,-2.00
2019-02-07T06:17:12.252Z,-2.00
2019-02-07T06:20:14.749Z,-2.00
2019-02-07T06:23:17.004Z,-2.00
2019-02-07T06:29:57.996Z,-1.90
2019-02-07T06:33:17.974Z,-1.90
2019-02-07T06:36:20.633Z,-1.80
2019-02-07T06:39:28.410Z,-1.70
2019-02-07T06:42:32.630Z,-1.60
2019-02-07T06:45:34.711Z,-2.10
2019-02-07T06:48:54.963Z,-2.00
2019-02-07T06:51:57.573Z,-2.00
2019-02-07T06:55:17.765Z,-2.00
2019-02-07T07:01:51.029Z,-1.70
2019-02-07T07:05:14.242Z,-1.50
2019-02-07T07:08:37.746Z,-1.40
2019-02-07T07:11:57.597Z,-1.40
2019-02-07T07:15:17.709Z,-1.30
2019-02-07T07:18:20.608Z,-1.30
2019-02-07T07:21:25.601Z,-1.30
2019-02-07T07:24:46.002Z,-1.20
2019-02-07T07:28:06.050Z,-1.10
2019-02-07T07:31:11.767Z,-1.00
2019-02-07T07:34:31.688Z,-1.00
2019-02-07T07:37:51.202Z,-1.00
2019-02-07T07:40:57.302Z,-1.00
2019-02-07T07:44:17.346Z,-0.90
2019-02-07T07:47:19.388Z,-0.80
2019-02-07T07:54:00.711Z,-0.80
2019-02-07T07:57:05.789Z,-0.70
2019-02-07T08:00:08.190Z,-0.60
2019-02-07T08:03:28.455Z,-0.50
2019-02-07T08:06:33.578Z,-0.30
2019-02-07T08:09:35.957Z,-0.10
2019-02-07T08:12:55.596Z,0.00
2019-02-07T08:19:14.953Z,0.20
2019-02-07T08:22:20.664Z,0.50
2019-02-07T08:25:40.793Z,0.60
2019-02-07T08:28:43.506Z,0.70
2019-02-07T08:31:46.022Z,0.80
2019-02-07T08:35:05.978Z,1.00
2019-02-07T08:38:08.102Z,1.20
2019-02-07T08:41:13.337Z,1.30
2019-02-07T08:44:33.336Z,1.50
2019-02-07T08:47:39.138Z,1.60
2019-02-07T08:50:59.251Z,2.00
2019-02-07T08:54:01.293Z,2.20
2019-02-07T08:57:20.935Z,2.30
2019-02-07T09:00:23.808Z,2.40
2019-02-07T09:03:43.502Z,2.50
2019-02-07T09:06:49.005Z,2.30
2019-02-07T09:09:51.169Z,2.50
2019-02-07T09:13:10.797Z,2.70
2019-02-07T09:16:19.164Z,2.70
2019-02-07T09:19:24.682Z,2.90
2019-02-07T09:22:29.737Z,3.10
2019-02-07T09:25:50.005Z,3.50
2019-02-07T09:28:55.884Z,3.30
2019-02-07T09:32:15.587Z,3.30
2019-02-07T09:35:24.374Z,3.50
2019-02-07T09:38:43.957Z,3.40
2019-02-07T09:41:52.601Z,3.50
2019-02-07T09:48:21.374Z,3.40
2019-02-07T09:51:16.910Z,3.40
2019-02-07T09:54:22.549Z,3.70
2019-02-07T09:57:28.089Z,3.60
2019-02-07T10:00:30.395Z,3.80
2019-02-07T10:03:32.793Z,3.90
2019-02-07T10:10:06.308Z,4.10
2019-02-07T10:13:26.334Z,4.10
2019-02-07T10:16:32.009Z,4.40
2019-02-07T10:19:52.349Z,4.40
2019-02-07T10:22:57.240Z,4.50
2019-02-07T10:25:59.755Z,4.70
2019-02-07T10:29:04.615Z,5.00
2019-02-07T10:35:37.899Z,5.30
2019-02-07T10:45:15.789Z,5.70
2019-02-07T10:48:44.238Z,5.70
2019-02-07T10:51:56.954Z,5.80
2019-02-07T10:55:02.428Z,5.90
2019-02-07T11:01:35.938Z,6.00
2019-02-07T11:04:56.147Z,6.00
2019-02-07T11:08:16.474Z,6.00
2019-02-07T11:14:49.857Z,5.90
2019-02-07T11:18:10.141Z,5.90
2019-02-07T11:21:30.574Z,6.00
2019-02-07T11:24:33.198Z,6.10
2019-02-07T11:30:49.124Z,6.30
2019-02-07T11:33:51.734Z,6.40
2019-02-07T11:40:11.385Z,6.80
2019-02-07T11:43:16.633Z,6.90
2019-02-07T11:46:22.324Z,6.90
2019-02-07T11:49:24.448Z,7.00
2019-02-07T11:52:44.345Z,7.00
2019-02-07T11:56:07.511Z,7.00
2019-02-07T11:59:30.906Z,6.90
2019-02-07T12:02:51.149Z,7.00
2019-02-07T12:09:10.521Z,7.10
2019-02-07T12:12:15.906Z,7.10
2019-02-07T12:15:18.743Z,7.20
2019-02-07T12:18:24.221Z,7.30
2019-02-07T12:21:29.370Z,7.30
2019-02-07T12:28:17.177Z,7.30
2019-02-07T12:31:19.949Z,7.40
2019-02-07T12:34:22.593Z,7.40
2019-02-07T12:37:27.893Z,7.30
2019-02-07T12:40:47.864Z,7.20
2019-02-07T12:44:07.996Z,7.10
2019-02-07T12:47:28.044Z,7.10
2019-02-07T12:50:47.513Z,7.10
2019-02-07T12:53:53.548Z,7.10
2019-02-07T12:56:58.512Z,7.20
2019-02-07T13:00:04.143Z,7.20
2019-02-07T13:03:23.832Z,7.20
2019-02-07T13:06:47.570Z,7.30
2019-02-07T13:10:07.199Z,7.40
2019-02-07T13:13:30.387Z,7.50
2019-02-07T13:16:53.619Z,7.60
2019-02-07T13:19:56.080Z,7.50
2019-02-07T13:26:25.810Z,7.40
2019-02-07T13:29:28.394Z,7.30
2019-02-07T13:32:30.640Z,7.20
2019-02-07T13:39:03.863Z,7.40
2019-02-07T13:42:24.276Z,7.40
2019-02-07T13:45:29.630Z,7.40
2019-02-07T13:48:49.369Z,7.40
2019-02-07T13:55:24.198Z,7.30
2019-02-07T13:58:27.079Z,7.40
2019-02-07T14:01:29.670Z,7.50
2019-02-07T14:04:49.756Z,7.40
2019-02-07T14:08:09.834Z,7.50
2019-02-07T14:11:29.827Z,7.40
2019-02-07T14:14:53.758Z,7.30
2019-02-07T14:17:59.302Z,7.30
2019-02-07T14:21:07.080Z,7.60
2019-02-07T14:24:34.155Z,7.60
2019-02-07T14:27:36.178Z,7.60
2019-02-07T14:30:56.054Z,7.80
2019-02-07T14:34:02.278Z,7.60
2019-02-07T14:37:22.418Z,7.70
2019-02-07T14:40:42.617Z,7.70
2019-02-07T14:43:45.464Z,7.80
2019-02-07T14:46:48.470Z,7.80
2019-02-07T14:49:49.453Z,7.90
2019-02-07T14:52:49.966Z,7.90
2019-02-07T14:55:50.844Z,7.80
2019-02-07T14:58:51.359Z,7.70
2019-02-07T15:01:51.978Z,7.50
2019-02-07T15:04:52.421Z,7.50
2019-02-07T15:07:52.789Z,7.60
2019-02-07T15:10:53.524Z,7.70
2019-02-07T15:13:53.829Z,7.70
2019-02-07T15:16:54.547Z,7.80
2019-02-07T15:19:54.781Z,7.80
2019-02-07T15:22:55.503Z,7.70
2019-02-07T15:25:56.037Z,7.70
2019-02-07T15:28:56.728Z,7.70
2019-02-07T15:31:57.114Z,7.50
2019-02-07T15:34:58.328Z,7.40
2019-02-07T15:37:59.525Z,7.40
2019-02-07T15:41:00.284Z,7.30
2019-02-07T15:44:00.799Z,7.10
2019-02-07T15:47:01.581Z,7.00
2019-02-07T15:50:02.162Z,7.00
2019-02-07T15:53:04.543Z,6.90
2019-02-07T15:56:05.492Z,6.80
2019-02-07T15:59:07.805Z,6.70
2019-02-07T16:02:10.657Z,6.70
2019-02-07T16:05:11.782Z,6.50
2019-02-07T16:08:12.617Z,6.40
2019-02-07T16:11:01.298Z,6.30
2019-02-07T16:14:09.232Z,6.20
2019-02-07T16:17:17.120Z,6.30
2019-02-07T16:20:25.067Z,6.30
2019-02-07T16:23:25.944Z,6.20
2019-02-07T16:26:26.580Z,6.30
2019-02-07T16:29:26.968Z,6.10
2019-02-07T16:32:28.730Z,6.10
2019-02-07T16:35:28.991Z,6.10
2019-02-07T16:38:29.606Z,6.20
2019-02-07T16:41:30.045Z,6.20
2019-02-07T16:44:30.374Z,6.10
2019-02-07T16:47:30.674Z,6.10
2019-02-07T16:50:31.066Z,5.90
2019-02-07T16:53:31.546Z,6.10
2019-02-07T16:56:32.854Z,6.00
2019-02-07T16:59:33.541Z,6.00
2019-02-07T17:02:34.230Z,6.00
2019-02-07T17:05:37.688Z,6.00
2019-02-07T17:08:37.325Z,5.90
2019-02-07T17:11:37.821Z,5.80
2019-02-07T17:14:38.550Z,5.70
2019-02-07T17:17:40.880Z,5.60
2019-02-07T17:20:41.514Z,5.70
2019-02-07T17:23:42.193Z,5.70
2019-02-07T17:26:42.526Z,5.60
2019-02-07T17:29:42.873Z,5.50
2019-02-07T17:32:44.008Z,5.60
2019-02-07T17:35:44.426Z,5.60
2019-02-07T17:38:44.795Z,5.60
2019-02-07T17:41:45.287Z,5.70
2019-02-07T17:44:46.385Z,5.70
2019-02-07T17:47:47.234Z,5.40
2019-02-07T17:50:47.596Z,5.40
2019-02-07T17:53:48.282Z,5.30
2019-02-07T17:56:48.786Z,5.30
2019-02-07T17:59:50.233Z,5.50
2019-02-07T18:02:50.765Z,5.50
2019-02-07T18:05:51.466Z,5.50
2019-02-07T18:08:52.128Z,5.30
2019-02-07T18:11:52.649Z,5.20
2019-02-07T18:14:53.024Z,5.30
2019-02-07T18:17:53.689Z,5.30
2019-02-07T18:20:54.687Z,5.30
2019-02-07T18:23:55.817Z,5.10
2019-02-07T18:26:56.549Z,5.00
2019-02-07T18:29:57.145Z,5.10
2019-02-07T18:32:57.492Z,5.10
2019-02-07T18:35:58.667Z,5.20
2019-02-07T18:39:00.122Z,5.00
2019-02-07T18:42:00.428Z,5.00
2019-02-07T18:45:01.335Z,5.00
2019-02-07T18:48:02.232Z,4.90
2019-02-07T18:51:03.088Z,4.90
2019-02-07T18:54:04.602Z,4.90
2019-02-07T18:57:05.787Z,4.80
2019-02-07T19:00:06.805Z,4.60
2019-02-07T19:03:07.941Z,4.50
2019-02-07T19:06:08.254Z,4.30
2019-02-07T19:09:08.797Z,4.30
2019-02-07T19:12:09.804Z,4.40
2019-02-07T19:15:10.192Z,4.40
2019-02-07T19:18:10.698Z,4.40
2019-02-07T19:21:11.160Z,4.40
2019-02-07T19:24:12.710Z,4.40
2019-02-07T19:27:13.513Z,4.50
2019-02-07T19:30:14.169Z,4.50
2019-02-07T19:33:14.732Z,4.50
2019-02-07T19:36:15.277Z,4.50
2019-02-07T19:39:16.499Z,4.60
2019-02-07T19:42:17.215Z,4.70
2019-02-07T19:45:17.766Z,4.70
2019-02-07T19:48:19.049Z,4.60
2019-02-07T19:51:19.778Z,4.50
2019-02-07T19:54:20.952Z,4.40
2019-02-07T19:57:21.685Z,4.40
2019-02-07T20:00:22.486Z,4.30
2019-02-07T20:03:27.217Z,4.30
2019-02-07T20:06:28.816Z,4.30
2019-02-07T20:09:29.575Z,4.40
2019-02-07T20:12:30.303Z,4.30
2019-02-07T20:15:30.978Z,4.30
2019-02-07T20:18:32.128Z,4.30
2019-02-07T20:21:33.117Z,4.20
2019-02-07T20:24:45.435Z,4.20
2019-02-07T20:27:37.035Z,4.10
2019-02-07T20:30:37.691Z,4.00
2019-02-07T20:33:38.502Z,4.00
2019-02-07T20:36:39.825Z,3.90
2019-02-07T20:39:41.037Z,4.00
2019-02-07T20:42:42.051Z,3.90
2019-02-07T20:45:42.893Z,3.90
2019-02-07T20:48:43.683Z,3.90
2019-02-07T20:51:44.338Z,4.00
2019-02-07T20:54:45.085Z,3.90
2019-02-07T20:57:45.449Z,4.00
2019-02-07T21:00:46.103Z,4.00
2019-02-07T21:03:46.621Z,4.00
2019-02-07T21:06:47.107Z,4.00
2019-02-07T21:09:48.303Z,4.00
2019-02-07T21:12:48.764Z,4.00
2019-02-07T21:15:49.766Z,3.90
2019-02-07T21:18:50.165Z,4.00
2019-02-07T21:21:50.840Z,4.00
2019-02-07T21:24:51.504Z,4.00
2019-02-07T21:27:51.881Z,4.00
2019-02-07T21:30:52.350Z,4.00
2019-02-07T21:33:52.968Z,4.00
2019-02-07T21:36:53.357Z,4.10
2019-02-07T21:39:53.987Z,4.10
2019-02-07T21:42:54.538Z,4.00
2019-02-07T21:45:55.421Z,3.90
2019-02-07T21:48:56.599Z,4.00
2019-02-07T21:51:57.390Z,4.00
2019-02-07T21:54:57.777Z,4.00
2019-02-07T21:57:58.927Z,4.00
2019-02-07T22:00:59.553Z,3.90
2019-02-07T22:04:00.161Z,3.90
2019-02-07T22:07:00.565Z,3.80
2019-02-07T22:10:01.369Z,3.80
2019-02-07T22:13:02.511Z,3.80
2019-02-07T22:16:03.144Z,3.70
2019-02-07T22:19:03.842Z,3.70
2019-02-07T22:22:04.392Z,3.70
2019-02-07T22:25:05.409Z,3.70
2019-02-07T22:28:05.739Z,3.70
2019-02-07T22:31:06.236Z,3.60
2019-02-07T22:34:06.622Z,3.60
2019-02-07T22:37:07.554Z,3.50
2019-02-07T22:40:08.177Z,3.50
2019-02-07T22:43:09.314Z,3.60
2019-02-07T22:46:09.722Z,3.50
2019-02-07T22:49:10.063Z,3.60
2019-02-07T22:52:10.733Z,3.50
2019-02-07T22:55:11.294Z,3.60
2019-02-07T22:58:11.657Z,3.60
2019-02-07T23:01:12.933Z,3.60
2019-02-07T23:04:14.160Z,3.60
2019-02-07T23:07:15.198Z,3.60
2019-02-07T23:10:15.788Z,3.50
2019-02-07T23:13:16.142Z,3.60
2019-02-07T23:16:17.078Z,3.60
2019-02-07T23:19:19.139Z,3.60
2019-02-07T23:22:19.903Z,3.60
2019-02-07T23:25:20.758Z,3.60
2019-02-07T23:28:21.589Z,3.60
2019-02-07T23:31:21.849Z,3.60
2019-02-07T23:34:22.497Z,3.60
2019-02-07T23:37:23.194Z,3.70
2019-02-07T23:40:24.269Z,3.70
2019-02-07T23:43:25.033Z,3.70
2019-02-07T23:46:25.625Z,3.60
2019-02-07T23:49:26.281Z,3.60
2019-02-07T23:52:26.695Z,3.60
2019-02-07T23:55:27.001Z,3.60
2019-02-07T23:58:28.007Z,3.70
